Flight Track Log - Related Links

Times and Time Zones

All times are in EDT time to prevent confusion due to time zone crossing. See the AWI3551 flight status page for this flight to view local times or setup timezone preferences in your user account.

Time Position Orientation Groundspeed Altitude Reporting Facility
EDT Latitude Longitude Course Direction KTS MPH feet Rate Location/Type
Thu 05:37:22 AM 42.9333 -78.7500 174° South 163 188 1,400  Level Buffalo TRACON
Thu 05:39:20 AM 42.8339 -78.7825 193° South 237 273 4,700 1,652 Climbing Cleveland Center
Thu 05:40:00 AM 42.5045 -78.6619 173° South  Level FlightAware Approximate
Thu 05:40:20 AM 42.7564 -78.7650 171° South 257 296 6,300  Level Cleveland Center
Thu 05:41:00 AM 42.4105 -78.6500 180° South  Level FlightAware Approximate
Thu 05:41:20 AM 42.6747 -78.7447 170° South 273 314 8,900  Level Cleveland Center
Thu 05:42:00 AM 42.3163 -78.6428 174° South  Level FlightAware Approximate
Thu 05:42:20 AM 42.5994 -78.7272 170° South 283 326 10,500  Level Cleveland Center
Thu 05:43:20 AM 42.5139 -78.7100 172° South 283 326 12,300 1,850 Climbing Cleveland Center
Thu 05:44:20 AM 42.4281 -78.6900 170° South 303 349 14,200 1,800 Climbing Cleveland Center
Thu 05:45:20 AM 42.3361 -78.6731 172° South 323 372 15,900 1,550 Climbing Cleveland Center
Thu 05:46:20 AM 42.2439 -78.6506 170° South 336 387 17,300 1,400 Climbing Cleveland Center
Thu 05:47:20 AM 42.1539 -78.6311 171° South 349 402 18,700 1,500 Climbing Cleveland Center
Thu 05:48:20 AM 42.0558 -78.6228 176° South 349 402 20,300 1,300 Climbing Cleveland Center
Thu 05:49:20 AM 41.9558 -78.6258 181° South 349 402 21,300 1,000 Climbing Cleveland Center
Thu 05:50:20 AM 41.8578 -78.6206 178° South 354 407 22,300 850 Climbing Cleveland Center
Thu 05:51:20 AM 41.7594 -78.6011 172° South 354 407 23,000 350 Climbing Cleveland Center
Thu 05:52:20 AM 41.6644 -78.5319 151° Southeast 360 414 23,000  Level Cleveland Center
Thu 05:53:20 AM 41.5650 -78.4600 152° Southeast 381 438 23,000  Level Cleveland Center
Thu 05:54:20 AM 41.4617 -78.3858 152° Southeast 400 460 23,000  Level Cleveland Center
Thu 05:55:37 AM 41.3331 -78.2925 151° Southeast 428 493 23,000  Level New York Center
Thu 05:56:38 AM 41.2294 -78.2175 151° Southeast 428 493 23,000  Level New York Center
Thu 05:57:37 AM 41.1258 -78.1425 151° Southeast 428 493 23,000  Level New York Center
Thu 05:58:38 AM 41.0200 -78.0678 152° Southeast 428 493 23,000  Level New York Center
Thu 05:59:35 AM 40.9164 -77.9908 151° Southeast 428 493 23,000 -504 Level New York Center
Thu 06:00:37 AM 40.8378 -77.8756 132° Southeast 423 487 22,000 -984 Descending New York Center
Thu 06:01:37 AM 40.7594 -77.7578 131° Southeast 423 487 21,000 -1,008 Descending New York Center
Thu 06:02:36 AM 40.6828 -77.6403 131° Southeast 428 493 20,000 -1,008 Descending New York Center
Thu 06:03:36 AM 40.5983 -77.5144 131° Southeast 418 481 19,000 -492 Descending New York Center
Thu 06:04:38 AM 40.5289 -77.4147 132° Southeast 413 475 19,000  Level New York Center
Thu 06:05:35 AM 40.4658 -77.2750 121° Southeast 408 470 19,000  Level New York Center
Thu 06:06:36 AM 40.4356 -77.1439 107° East 408 470 19,000  Level New York Center
Thu 06:07:37 AM 40.3958 -76.9875 108° East 413 475 19,000 -100 Level New York Center
Thu 06:08:36 AM 40.3597 -76.8397 108° East 418 481 18,800 -893 Descending New York Center
Thu 06:09:38 AM 40.3253 -76.6953 107° East 418 481 17,200 -1,550 Descending New York Center
Thu 06:10:36 AM 40.2906 -76.5589 108° East 413 475 15,700 -1,462 Descending New York Center
Thu 06:11:37 AM 40.2589 -76.4367 109° East 407 468 14,300 -1,377 Descending New York Center
Thu 06:12:38 AM 40.2236 -76.3031 109° East 394 453 12,900 -1,513 Descending New York Center
Thu 06:13:36 AM 40.1939 -76.1783 107° East 370 426 11,300 -1,627 Descending New York Center
Thu 06:14:36 AM 40.1619 -76.0536 108° East 338 389 9,700 -1,488 Descending New York Center
Thu 06:15:37 AM 40.1369 -75.9622 110° East 306 352 8,300 -1,438 Descending New York Center
Thu 06:16:37 AM 40.1100 -75.8597 109° East 296 341 6,800 -1,160 Descending New York Center
Thu 06:17:36 AM 40.0856 -75.7522 107° East 291 335 6,000 -500 Descending New York Center
Thu 06:18:37 AM 40.0831 -75.6569 92° East 291 335 5,800 -492 Descending New York Center
Thu 06:19:38 AM 40.0625 -75.5497 104° East 282 325 5,000 -397 Descending New York Center
Thu 06:20:38 AM 40.0369 -75.4586 110° East 282 325 5,000  Level New York Center
Thu 06:21:38 AM 40.0097 -75.3564 109° East 282 325 5,000 -350 Level New York Center
Thu 06:22:38 AM 39.9822 -75.2597 110° East 277 319 4,300 -508 Descending New York Center
Thu 06:23:36 AM 39.9361 -75.2108 141° Southeast 219 252 4,000 -157 Descending New York Center
Thu 06:24:33 AM 39.8833 -75.1833 158° South 209 241 4,000  Level Philadelphia TRACON
Thu 06:25:33 AM 39.8333 -75.1500 153° Southeast 206 237 4,000  Level Philadelphia TRACON
Thu 06:26:39 AM 39.7667 -75.1333 169° South 211 243 4,000 -429 Level Philadelphia TRACON
Thu 06:27:39 AM 39.7333 -75.1500 201° Southwest 185 213 3,100 -958 Descending Philadelphia TRACON
Thu 06:28:38 AM 39.7833 -75.1667 346° North 179 206 2,100 -903 Descending Philadelphia TRACON
Thu 06:29:32 AM 39.8167 -75.2000 322° Northwest 136 157 1,400 -661 Descending Philadelphia TRACON
Thu 06:30:27 AM 39.8500 -75.2167 339° North 145 167 900 209 Descending Philadelphia TRACON
Thu 06:31:27 AM 39.8833 -75.2333 339° North 171 197 1,800 1,000 Climbing Philadelphia TRACON
Thu 06:32:33 AM 39.9500 -75.2667 339° North 230 265 3,000 667 Climbing Philadelphia TRACON
Thu 06:33:33 AM 40.0000 -75.2500 14° North 219 252 3,200 526 Climbing Philadelphia TRACON
Thu 06:34:27 AM 39.9667 -75.2000 131° Southeast 236 272 4,000 421 Climbing Philadelphia TRACON
Thu 06:35:27 AM 39.9000 -75.1667 159° South 206 237 4,000  Level Philadelphia TRACON
Thu 06:36:33 AM 39.8500 -75.1333 153° Southeast 209 241 4,000 -300 Level Philadelphia TRACON
Thu 06:37:27 AM 39.8000 -75.1000 153° Southeast 207 238 3,400 -667 Descending Philadelphia TRACON

Login

Don't have an account? Register now (free) for customized features, flight alerts, and more!